Wind From: 13-12-2017 10:08 Until: 14-12-2017 06:00 warning for: Wind Level: Yellow info button

Although rather usual in this region, locally or potentially dangerous phenomena are expected. (such as local winds, summer thunderstorms, rising streams or high waves) Be aware and pay attention to the latest weather updates, especially if you carry out activities exposed to weather or close to a stream or shoreline. 


Meteo18 Weather Cam more information Meteo18 Weather Cam


Thunder radar more information blitzortung!


Rain radar more information rain snow radar


Visit our other weather sites:

Template documentation
and downloads

And another site



Weather Underground History page Text

Daily Summary for June 26, 2017 Units:  Both    English   Metric
« Previous Day
Next Day »
Daily Weekly Monthly Yearly Custom
  High: Low: Average:
Temperature: 80.1 °F /  26.7 °C 57.7 °F /  14.3 °C 68.2 °F /  20.1 °C
Dew Point: 65.5 °F /  18.6 °C 55.2 °F /  12.9 °C 60.8 °F /  16 °C
Humidity: 94 % 53 % 79 %
Wind Speed: 10 mph /  16.1 km/h - 1.1 mph /  1.7 km/h
Wind Gust: 10 mph /  16.1 km/h - -
Wind:- - SE
Pressure: 30.1 in /  1017.5 hPa 29.8 in /  1010.4 hPa -
Precipitation: 0.04 in /  1.0 mm    
Historical Graphs
 
 
Tabular Data for June 26, 2017
Time Temperature Dew Point Pressure Wind Wind Speed Wind Gust Humidity Rainfall Rate (Hourly)
00:02 63.9 °F /  17.7 °C 58.6 °F /  14.8 °C 30 in /  1017.2 hPa Calm     83 % 0 in /  0.0 mm
00:07 63.5 °F /  17.5 °C 58.3 °F /  14.6 °C 30 in /  1017.2 hPa Calm     83 % 0 in /  0.0 mm
00:12 63.1 °F /  17.3 °C 58.3 °F /  14.6 °C 30 in /  1017.2 hPa Calm     84 % 0 in /  0.0 mm
00:17 63.1 °F /  17.3 °C 58.3 °F /  14.6 °C 30 in /  1017.2 hPa Calm     84 % 0 in /  0.0 mm
00:22 63 °F /  17.2 °C 58.1 °F /  14.5 °C 30 in /  1017.2 hPa Calm     84 % 0 in /  0.0 mm
00:32 62.4 °F /  16.9 °C 57.9 °F /  14.4 °C 30 in /  1017.2 hPa Calm     85 % 0 in /  0.0 mm
00:42 62.2 °F /  16.8 °C 57.9 °F /  14.4 °C 30.1 in /  1017.5 hPa Calm     86 % 0 in /  0.0 mm
00:47 62.2 °F /  16.8 °C 57.9 °F /  14.4 °C 30.1 in /  1017.5 hPa Calm     86 % 0 in /  0.0 mm
00:57 61.3 °F /  16.3 °C 57.2 °F /  14.0 °C 30.1 in /  1017.5 hPa Calm     86 % 0 in /  0.0 mm
01:02 61.2 °F /  16.2 °C 57 °F /  13.9 °C 30 in /  1017.2 hPa Calm     86 % 0 in /  0.0 mm
01:12 60.6 °F /  15.9 °C 56.7 °F /  13.7 °C 30 in /  1017.2 hPa Calm     87 % 0 in /  0.0 mm
01:22 61 °F /  16.1 °C 57.7 °F /  14.3 °C 30 in /  1017.2 hPa Calm     89 % 0 in /  0.0 mm
01:27 61 °F /  16.1 °C 57.4 °F /  14.1 °C 30 in /  1017.2 hPa Calm     88 % 0 in /  0.0 mm
01:32 61.2 °F /  16.2 °C 57.6 °F /  14.2 °C 30 in /  1017.2 hPa Calm     88 % 0 in /  0.0 mm
01:37 61.3 °F /  16.3 °C 57.7 °F /  14.3 °C 30 in /  1017.2 hPa WSW 1 mph /  1.6 km/h   88 % 0 in /  0.0 mm
01:42 61.5 °F /  16.4 °C 57.9 °F /  14.4 °C 30 in /  1017.2 hPa Calm     88 % 0 in /  0.0 mm
01:47 61.3 °F /  16.3 °C 57.7 °F /  14.3 °C 30 in /  1016.8 hPa Calm   1 mph /  1.6 km/h 88 % 0 in /  0.0 mm
01:57 60.8 °F /  16.0 °C 57.2 °F /  14.0 °C 30 in /  1016.8 hPa NNE 2 mph /  3.2 km/h 3 mph /  4.8 km/h 88 % 0 in /  0.0 mm
02:02 60.4 °F /  15.8 °C 57.2 °F /  14.0 °C 30 in /  1016.5 hPa North 2 mph /  3.2 km/h 3 mph /  4.8 km/h 89 % 0 in /  0.0 mm
02:12 60.4 °F /  15.8 °C 57.2 °F /  14.0 °C 30 in /  1016.5 hPa Calm   3 mph /  4.8 km/h 89 % 0 in /  0.0 mm
02:17 60.4 °F /  15.8 °C 57.6 °F /  14.2 °C 30 in /  1016.5 hPa NW 1 mph /  1.6 km/h 2 mph /  3.2 km/h 90 % 0 in /  0.0 mm
02:27 60.4 °F /  15.8 °C 57.2 °F /  14.0 °C 30 in /  1016.1 hPa Calm   1 mph /  1.6 km/h 89 % 0 in /  0.0 mm
02:32 60.4 °F /  15.8 °C 57.2 °F /  14.0 °C 30 in /  1016.1 hPa North 2 mph /  3.2 km/h 2 mph /  3.2 km/h 89 % 0 in /  0.0 mm
02:37 60.6 °F /  15.9 °C 57.4 °F /  14.1 °C 30 in /  1016.1 hPa North 1 mph /  1.6 km/h 3 mph /  4.8 km/h 89 % 0 in /  0.0 mm
02:42 60.6 °F /  15.9 °C 57.7 °F /  14.3 °C 30 in /  1016.1 hPa North 1 mph /  1.6 km/h 3 mph /  4.8 km/h 90 % 0 in /  0.0 mm
02:47 60.6 °F /  15.9 °C 57.7 °F /  14.3 °C 30 in /  1016.1 hPa Calm   3 mph /  4.8 km/h 90 % 0 in /  0.0 mm
02:52 60.3 °F /  15.7 °C 56.7 °F /  13.7 °C 30 in /  1016.1 hPa WNW 1 mph /  1.6 km/h 3 mph /  4.8 km/h 88 % 0 in /  0.0 mm
02:57 60.1 °F /  15.6 °C 57.2 °F /  14.0 °C 30 in /  1016.1 hPa WNW 2 mph /  3.2 km/h 2 mph /  3.2 km/h 90 % 0 in /  0.0 mm
03:02 59.9 °F /  15.5 °C 56.7 °F /  13.7 °C 30 in /  1016.1 hPa Calm   2 mph /  3.2 km/h 89 % 0 in /  0.0 mm
03:12 59.9 °F /  15.5 °C 57.2 °F /  14.0 °C 30 in /  1015.8 hPa Calm   2 mph /  3.2 km/h 91 % 0 in /  0.0 mm
03:17 60.3 °F /  15.7 °C 57.6 °F /  14.2 °C 30 in /  1015.8 hPa North 2 mph /  3.2 km/h 2 mph /  3.2 km/h 91 % 0 in /  0.0 mm
03:22 60.1 °F /  15.6 °C 56.8 °F /  13.8 °C 30 in /  1015.8 hPa Calm   2 mph /  3.2 km/h 89 % 0 in /  0.0 mm
03:32 59.4 °F /  15.2 °C 56.1 °F /  13.4 °C 30 in /  1015.8 hPa Calm   2 mph /  3.2 km/h 89 % 0 in /  0.0 mm
03:37 59.5 °F /  15.3 °C 56.8 °F /  13.8 °C 30 in /  1015.8 hPa Calm   1 mph /  1.6 km/h 91 % 0 in /  0.0 mm
03:42 59.4 °F /  15.2 °C 56.7 °F /  13.7 °C 30 in /  1015.5 hPa Calm   1 mph /  1.6 km/h 91 % 0 in /  0.0 mm
03:47 59.2 °F /  15.1 °C 56.3 °F /  13.5 °C 30 in /  1015.5 hPa NNE 2 mph /  3.2 km/h 2 mph /  3.2 km/h 90 % 0 in /  0.0 mm
03:52 59.2 °F /  15.1 °C 56.8 °F /  13.8 °C 30 in /  1015.5 hPa Calm   2 mph /  3.2 km/h 92 % 0 in /  0.0 mm
03:57 59 °F /  15.0 °C 56.1 °F /  13.4 °C 30 in /  1015.5 hPa NNE 2 mph /  3.2 km/h 3 mph /  4.8 km/h 90 % 0 in /  0.0 mm
04:02 58.5 °F /  14.7 °C 55.6 °F /  13.1 °C 30 in /  1015.5 hPa NNW 1 mph /  1.6 km/h 3 mph /  4.8 km/h 90 % 0 in /  0.0 mm
04:12 58.8 °F /  14.9 °C 56.1 °F /  13.4 °C 30 in /  1015.5 hPa NNW 1 mph /  1.6 km/h 3 mph /  4.8 km/h 91 % 0 in /  0.0 mm
04:17 59.2 °F /  15.1 °C 56.5 °F /  13.6 °C 30 in /  1015.5 hPa Calm   2 mph /  3.2 km/h 91 % 0 in /  0.0 mm
04:22 59.2 °F /  15.1 °C 56.5 °F /  13.6 °C 30 in /  1015.5 hPa Calm   2 mph /  3.2 km/h 91 % 0 in /  0.0 mm
04:32 58.3 °F /  14.6 °C 55.4 °F /  13.0 °C 30 in /  1015.5 hPa Calm   1 mph /  1.6 km/h 90 % 0 in /  0.0 mm
04:37 57.9 °F /  14.4 °C 55.2 °F /  12.9 °C 30 in /  1015.5 hPa Calm     91 % 0 in /  0.0 mm
04:42 58.1 °F /  14.5 °C 55.8 °F /  13.2 °C 30 in /  1015.5 hPa WNW 1 mph /  1.6 km/h   92 % 0 in /  0.0 mm
04:47 57.9 °F /  14.4 °C 55.6 °F /  13.1 °C 30 in /  1015.5 hPa Calm   1 mph /  1.6 km/h 92 % 0 in /  0.0 mm
04:52 58.1 °F /  14.5 °C 55.8 °F /  13.2 °C 30 in /  1015.5 hPa Calm   1 mph /  1.6 km/h 92 % 0 in /  0.0 mm
04:57 58.3 °F /  14.6 °C 56.3 °F /  13.5 °C 30 in /  1015.1 hPa Calm   1 mph /  1.6 km/h 93 % 0 in /  0.0 mm
05:02 58.3 °F /  14.6 °C 56.3 °F /  13.5 °C 30 in /  1015.5 hPa Calm   1 mph /  1.6 km/h 93 % 0 in /  0.0 mm
05:12 58.5 °F /  14.7 °C 56.5 °F /  13.6 °C 30 in /  1015.1 hPa Calm   1 mph /  1.6 km/h 93 % 0 in /  0.0 mm
05:17 58.3 °F /  14.6 °C 55.9 °F /  13.3 °C 30 in /  1015.1 hPa Calm     92 % 0 in /  0.0 mm
05:22 58.3 °F /  14.6 °C 55.9 °F /  13.3 °C 30 in /  1015.1 hPa Calm     92 % 0 in /  0.0 mm
05:32 57.7 °F /  14.3 °C 55.4 °F /  13.0 °C 30 in /  1015.1 hPa Calm     92 % 0 in /  0.0 mm
05:42 57.7 °F /  14.3 °C 55.8 °F /  13.2 °C 30 in /  1014.8 hPa North 1 mph /  1.6 km/h   93 % 0 in /  0.0 mm
05:47 57.7 °F /  14.3 °C 55.4 °F /  13.0 °C 30 in /  1014.8 hPa North 1 mph /  1.6 km/h 2 mph /  3.2 km/h 92 % 0 in /  0.0 mm
05:52 57.9 °F /  14.4 °C 55.6 °F /  13.1 °C 30 in /  1014.8 hPa North 1 mph /  1.6 km/h 2 mph /  3.2 km/h 92 % 0 in /  0.0 mm
06:02 58.1 °F /  14.5 °C 56.1 °F /  13.4 °C 30 in /  1014.8 hPa Calm   2 mph /  3.2 km/h 93 % 0 in /  0.0 mm
06:12 58.3 °F /  14.6 °C 55.9 °F /  13.3 °C 30 in /  1014.8 hPa Calm   3 mph /  4.8 km/h 92 % 0 in /  0.0 mm
06:17 58.5 °F /  14.7 °C 56.1 °F /  13.4 °C 30 in /  1014.4 hPa Calm   3 mph /  4.8 km/h 92 % 0 in /  0.0 mm
06:22 58.6 °F /  14.8 °C 56.3 °F /  13.5 °C 30 in /  1014.4 hPa Calm   3 mph /  4.8 km/h 92 % 0 in /  0.0 mm
06:32 58.6 °F /  14.8 °C 56.3 °F /  13.5 °C 30 in /  1014.4 hPa Calm     92 % 0 in /  0.0 mm
06:37 58.8 °F /  14.9 °C 56.1 °F /  13.4 °C 30 in /  1014.4 hPa Calm     91 % 0 in /  0.0 mm
06:42 59.4 °F /  15.2 °C 56.7 °F /  13.7 °C 30 in /  1014.4 hPa Calm     91 % 0 in /  0.0 mm
06:47 59.7 °F /  15.4 °C 57 °F /  13.9 °C 30 in /  1014.4 hPa Calm     91 % 0 in /  0.0 mm
06:52 60.4 °F /  15.8 °C 57.7 °F /  14.3 °C 30 in /  1014.4 hPa Calm     91 % 0 in /  0.0 mm
07:02 61 °F /  16.1 °C 57.4 °F /  14.1 °C 30 in /  1014.4 hPa Calm     88 % 0 in /  0.0 mm
07:07 61.5 °F /  16.4 °C 57.9 °F /  14.4 °C 30 in /  1014.4 hPa Calm     88 % 0 in /  0.0 mm
07:12 62.4 °F /  16.9 °C 58.5 °F /  14.7 °C 30 in /  1014.4 hPa Calm     87 % 0 in /  0.0 mm
07:17 63.5 °F /  17.5 °C 59.5 °F /  15.3 °C 30 in /  1014.4 hPa Calm     87 % 0 in /  0.0 mm
07:22 64.6 °F /  18.1 °C 59.9 °F /  15.5 °C 30 in /  1014.4 hPa Calm     85 % 0 in /  0.0 mm
07:27 64.8 °F /  18.2 °C 59.5 °F /  15.3 °C 30 in /  1014.4 hPa Calm     83 % 0 in /  0.0 mm
07:32 64.9 °F /  18.3 °C 59.7 °F /  15.4 °C 30 in /  1014.4 hPa Calm     83 % 0 in /  0.0 mm
07:37 66 °F /  18.9 °C 60.6 °F /  15.9 °C 30 in /  1014.4 hPa Calm     83 % 0 in /  0.0 mm
07:42 67.3 °F /  19.6 °C 60.3 °F /  15.7 °C 30 in /  1014.4 hPa Calm     78 % 0 in /  0.0 mm
07:47 66.9 °F /  19.4 °C 59.9 °F /  15.5 °C 30 in /  1014.4 hPa Calm     78 % 0 in /  0.0 mm
07:52 66.6 °F /  19.2 °C 59.5 °F /  15.3 °C 30 in /  1014.4 hPa Calm     78 % 0 in /  0.0 mm
07:57 66.7 °F /  19.3 °C 59.7 °F /  15.4 °C 30 in /  1014.4 hPa Calm     78 % 0 in /  0.0 mm
08:02 67.1 °F /  19.5 °C 60.1 °F /  15.6 °C 30 in /  1014.4 hPa Calm     78 % 0 in /  0.0 mm
08:12 67.6 °F /  19.8 °C 59.4 °F /  15.2 °C 30 in /  1014.4 hPa NE 3 mph /  4.8 km/h   75 % 0 in /  0.0 mm
08:17 68 °F /  20.0 °C 59.7 °F /  15.4 °C 30 in /  1014.4 hPa NE 2 mph /  3.2 km/h   75 % 0 in /  0.0 mm
08:22 68.4 °F /  20.2 °C 60.1 °F /  15.6 °C 29.9 in /  1014.1 hPa ENE 1 mph /  1.6 km/h 3 mph /  4.8 km/h 75 % 0 in /  0.0 mm
08:27 68.5 °F /  20.3 °C 59.9 °F /  15.5 °C 29.9 in /  1014.1 hPa NE 1 mph /  1.6 km/h 3 mph /  4.8 km/h 74 % 0 in /  0.0 mm
08:32 69.1 °F /  20.6 °C 60.4 °F /  15.8 °C 29.9 in /  1014.1 hPa NNE 1 mph /  1.6 km/h 3 mph /  4.8 km/h 74 % 0 in /  0.0 mm
08:37 69.6 °F /  20.9 °C 60.6 °F /  15.9 °C 29.9 in /  1014.1 hPa Calm   3 mph /  4.8 km/h 73 % 0 in /  0.0 mm
08:42 70 °F /  21.1 °C 60.6 °F /  15.9 °C 29.9 in /  1014.1 hPa East 1 mph /  1.6 km/h 3 mph /  4.8 km/h 72 % 0 in /  0.0 mm
08:52 70.3 °F /  21.3 °C 60.4 °F /  15.8 °C 29.9 in /  1013.8 hPa NE 4 mph /  6.4 km/h 5 mph /  8.0 km/h 71 % 0 in /  0.0 mm
08:57 70.5 °F /  21.4 °C 60.6 °F /  15.9 °C 29.9 in /  1014.1 hPa Calm   5 mph /  8.0 km/h 71 % 0 in /  0.0 mm
09:02 71.2 °F /  21.8 °C 61 °F /  16.1 °C 29.9 in /  1014.1 hPa ENE 3 mph /  4.8 km/h 5 mph /  8.0 km/h 70 % 0 in /  0.0 mm
09:12 71.4 °F /  21.9 °C 60.3 °F /  15.7 °C 29.9 in /  1014.1 hPa ESE 2 mph /  3.2 km/h 6 mph /  9.7 km/h 68 % 0 in /  0.0 mm
09:17 72 °F /  22.2 °C 60.8 °F /  16.0 °C 29.9 in /  1014.1 hPa ESE 2 mph /  3.2 km/h 6 mph /  9.7 km/h 68 % 0 in /  0.0 mm
09:22 72.7 °F /  22.6 °C 61.2 °F /  16.2 °C 29.9 in /  1013.8 hPa ENE 4 mph /  6.4 km/h 7 mph /  11.3 km/h 67 % 0 in /  0.0 mm
09:27 72.7 °F /  22.6 °C 60.6 °F /  15.9 °C 29.9 in /  1014.1 hPa Calm   7 mph /  11.3 km/h 66 % 0 in /  0.0 mm
09:32 72.9 °F /  22.7 °C 61.3 °F /  16.3 °C 29.9 in /  1013.8 hPa SSE 1 mph /  1.6 km/h 6 mph /  9.7 km/h 67 % 0 in /  0.0 mm
09:37 73.6 °F /  23.1 °C 61.5 °F /  16.4 °C 29.9 in /  1014.1 hPa SSE 2 mph /  3.2 km/h 6 mph /  9.7 km/h 66 % 0 in /  0.0 mm
09:42 73.6 °F /  23.1 °C 60.6 °F /  15.9 °C 29.9 in /  1014.1 hPa ESE 4 mph /  6.4 km/h 6 mph /  9.7 km/h 64 % 0 in /  0.0 mm
09:52 73.9 °F /  23.3 °C 61 °F /  16.1 °C 29.9 in /  1013.8 hPa East 5 mph /  8.0 km/h 5 mph /  8.0 km/h 64 % 0 in /  0.0 mm
09:57 73.6 °F /  23.1 °C 61.2 °F /  16.2 °C 29.9 in /  1013.8 hPa East 2 mph /  3.2 km/h 5 mph /  8.0 km/h 65 % 0 in /  0.0 mm
10:02 73.8 °F /  23.2 °C 60.8 °F /  16.0 °C 29.9 in /  1013.8 hPa East 1 mph /  1.6 km/h 5 mph /  8.0 km/h 64 % 0 in /  0.0 mm
10:12 73.9 °F /  23.3 °C 61 °F /  16.1 °C 29.9 in /  1013.8 hPa East 1 mph /  1.6 km/h 6 mph /  9.7 km/h 64 % 0 in /  0.0 mm
10:17 74.7 °F /  23.7 °C 61.2 °F /  16.2 °C 29.9 in /  1013.8 hPa East 2 mph /  3.2 km/h 6 mph /  9.7 km/h 63 % 0 in /  0.0 mm
10:22 75.6 °F /  24.2 °C 61.2 °F /  16.2 °C 29.9 in /  1013.8 hPa Calm   7 mph /  11.3 km/h 61 % 0 in /  0.0 mm
10:32 76.8 °F /  24.9 °C 61 °F /  16.1 °C 29.9 in /  1013.4 hPa East 5 mph /  8.0 km/h 7 mph /  11.3 km/h 58 % 0 in /  0.0 mm
10:42 76.5 °F /  24.7 °C 61 °F /  16.1 °C 29.9 in /  1013.4 hPa ESE 1 mph /  1.6 km/h 8 mph /  12.9 km/h 59 % 0 in /  0.0 mm
10:52 76.3 °F /  24.6 °C 61 °F /  16.1 °C 29.9 in /  1013.4 hPa East 6 mph /  9.7 km/h 10 mph /  16.1 km/h 59 % 0 in /  0.0 mm
10:57 76.3 °F /  24.6 °C 61 °F /  16.1 °C 29.9 in /  1013.4 hPa East 2 mph /  3.2 km/h 10 mph /  16.1 km/h 59 % 0 in /  0.0 mm
11:02 76.1 °F /  24.5 °C 60.3 °F /  15.7 °C 29.9 in /  1013.1 hPa ENE 7 mph /  11.3 km/h 10 mph /  16.1 km/h 58 % 0 in /  0.0 mm
11:12 77.4 °F /  25.2 °C 61.9 °F /  16.6 °C 29.9 in /  1013.1 hPa ENE 3 mph /  4.8 km/h 10 mph /  16.1 km/h 59 % 0 in /  0.0 mm
11:17 77.7 °F /  25.4 °C 61.7 °F /  16.5 °C 29.9 in /  1013.1 hPa NE 2 mph /  3.2 km/h 10 mph /  16.1 km/h 58 % 0 in /  0.0 mm
11:22 78.4 °F /  25.8 °C 61.5 °F /  16.4 °C 29.9 in /  1013.1 hPa East 4 mph /  6.4 km/h 8 mph /  12.9 km/h 56 % 0 in /  0.0 mm
11:32 78.6 °F /  25.9 °C 61.2 °F /  16.2 °C 29.9 in /  1013.1 hPa SE 1 mph /  1.6 km/h 8 mph /  12.9 km/h 55 % 0 in /  0.0 mm
11:42 79.2 °F /  26.2 °C 61.5 °F /  16.4 °C 29.9 in /  1012.8 hPa East 10 mph /  16.1 km/h 10 mph /  16.1 km/h 55 % 0 in /  0.0 mm
11:52 78.1 °F /  25.6 °C 61.2 °F /  16.2 °C 29.9 in /  1012.8 hPa ESE 4 mph /  6.4 km/h 10 mph /  16.1 km/h 56 % 0 in /  0.0 mm
11:57 77.7 °F /  25.4 °C 61.7 °F /  16.5 °C 29.9 in /  1012.8 hPa East 6 mph /  9.7 km/h 10 mph /  16.1 km/h 58 % 0 in /  0.0 mm
12:02 77.4 °F /  25.2 °C 61 °F /  16.1 °C 29.9 in /  1012.8 hPa SE 3 mph /  4.8 km/h 9 mph /  14.5 km/h 57 % 0 in /  0.0 mm
12:12 76.8 °F /  24.9 °C 61 °F /  16.1 °C 29.9 in /  1012.8 hPa ENE 4 mph /  6.4 km/h 9 mph /  14.5 km/h 58 % 0 in /  0.0 mm
12:17 76.8 °F /  24.9 °C 61 °F /  16.1 °C 29.9 in /  1012.8 hPa East 3 mph /  4.8 km/h 9 mph /  14.5 km/h 58 % 0 in /  0.0 mm
12:22 77.2 °F /  25.1 °C 60.8 °F /  16.0 °C 29.9 in /  1012.8 hPa East 6 mph /  9.7 km/h 9 mph /  14.5 km/h 57 % 0 in /  0.0 mm
12:32 77.9 °F /  25.5 °C 61.9 °F /  16.6 °C 29.9 in /  1012.8 hPa ENE 4 mph /  6.4 km/h 9 mph /  14.5 km/h 58 % 0 in /  0.0 mm
12:42 78.3 °F /  25.7 °C 61.3 °F /  16.3 °C 29.9 in /  1012.4 hPa ENE 5 mph /  8.0 km/h 9 mph /  14.5 km/h 56 % 0 in /  0.0 mm
12:47 78.3 °F /  25.7 °C 61.7 °F /  16.5 °C 29.9 in /  1012.4 hPa ENE 1 mph /  1.6 km/h 9 mph /  14.5 km/h 57 % 0 in /  0.0 mm
12:52 79.2 °F /  26.2 °C 61.5 °F /  16.4 °C 29.9 in /  1012.8 hPa ENE 3 mph /  4.8 km/h 10 mph /  16.1 km/h 55 % 0 in /  0.0 mm
12:57 78.6 °F /  25.9 °C 61.5 °F /  16.4 °C 29.9 in /  1012.8 hPa SE 3 mph /  4.8 km/h 10 mph /  16.1 km/h 56 % 0 in /  0.0 mm
13:02 78.6 °F /  25.9 °C 61.5 °F /  16.4 °C 29.9 in /  1012.8 hPa ESE 2 mph /  3.2 km/h 7 mph /  11.3 km/h 56 % 0 in /  0.0 mm
13:12 78.6 °F /  25.9 °C 61.5 °F /  16.4 °C 29.9 in /  1012.4 hPa NE 2 mph /  3.2 km/h 7 mph /  11.3 km/h 56 % 0 in /  0.0 mm
13:17 78.6 °F /  25.9 °C 61.5 °F /  16.4 °C 29.9 in /  1012.4 hPa ENE 6 mph /  9.7 km/h 10 mph /  16.1 km/h 56 % 0 in /  0.0 mm
13:22 78.6 °F /  25.9 °C 61.5 °F /  16.4 °C 29.9 in /  1012.4 hPa ENE 3 mph /  4.8 km/h 10 mph /  16.1 km/h 56 % 0 in /  0.0 mm
13:32 79.2 °F /  26.2 °C 61.5 °F /  16.4 °C 29.9 in /  1012.4 hPa NNE 2 mph /  3.2 km/h 10 mph /  16.1 km/h 55 % 0 in /  0.0 mm
13:42 80.1 °F /  26.7 °C 61.3 °F /  16.3 °C 29.9 in /  1012.1 hPa SW 2 mph /  3.2 km/h 9 mph /  14.5 km/h 53 % 0 in /  0.0 mm
13:52 79.5 °F /  26.4 °C 61.3 °F /  16.3 °C 29.9 in /  1012.1 hPa ENE 3 mph /  4.8 km/h 6 mph /  9.7 km/h 54 % 0 in /  0.0 mm
14:02 79.2 °F /  26.2 °C 61.2 °F /  16.2 °C 29.9 in /  1011.7 hPa ENE 5 mph /  8.0 km/h 6 mph /  9.7 km/h 54 % 0 in /  0.0 mm
14:12 79 °F /  26.1 °C 61.5 °F /  16.4 °C 29.9 in /  1011.7 hPa East 2 mph /  3.2 km/h 8 mph /  12.9 km/h 55 % 0 in /  0.0 mm
14:17 78.4 °F /  25.8 °C 61 °F /  16.1 °C 29.9 in /  1011.7 hPa East 2 mph /  3.2 km/h 7 mph /  11.3 km/h 55 % 0 in /  0.0 mm
14:22 78.4 °F /  25.8 °C 61.5 °F /  16.4 °C 29.9 in /  1011.7 hPa East 2 mph /  3.2 km/h 7 mph /  11.3 km/h 56 % 0 in /  0.0 mm
14:27 78.1 °F /  25.6 °C 61.2 °F /  16.2 °C 29.9 in /  1011.7 hPa ENE 3 mph /  4.8 km/h 5 mph /  8.0 km/h 56 % 0 in /  0.0 mm
14:32 78.1 °F /  25.6 °C 61.2 °F /  16.2 °C 29.9 in /  1011.7 hPa SSE 1 mph /  1.6 km/h 5 mph /  8.0 km/h 56 % 0 in /  0.0 mm
14:37 77.9 °F /  25.5 °C 61 °F /  16.1 °C 29.9 in /  1011.7 hPa ESE 1 mph /  1.6 km/h 6 mph /  9.7 km/h 56 % 0 in /  0.0 mm
14:42 77.4 °F /  25.2 °C 61.3 °F /  16.3 °C 29.9 in /  1011.7 hPa East 1 mph /  1.6 km/h 6 mph /  9.7 km/h 58 % 0 in /  0.0 mm
14:47 77 °F /  25.0 °C 61.2 °F /  16.2 °C 29.9 in /  1011.7 hPa ESE 2 mph /  3.2 km/h 6 mph /  9.7 km/h 58 % 0 in /  0.0 mm
14:52 76.8 °F /  24.9 °C 61 °F /  16.1 °C 29.9 in /  1012.1 hPa SE 1 mph /  1.6 km/h 6 mph /  9.7 km/h 58 % 0 in /  0.0 mm
14:57 76.8 °F /  24.9 °C 61.3 °F /  16.3 °C 29.9 in /  1012.1 hPa SE 1 mph /  1.6 km/h 6 mph /  9.7 km/h 59 % 0 in /  0.0 mm
15:02 76.6 °F /  24.8 °C 61.7 °F /  16.5 °C 29.9 in /  1012.1 hPa SSE 1 mph /  1.6 km/h 6 mph /  9.7 km/h 60 % 0 in /  0.0 mm
15:12 76.1 °F /  24.5 °C 61.2 °F /  16.2 °C 29.9 in /  1012.1 hPa ESE 1 mph /  1.6 km/h 7 mph /  11.3 km/h 60 % 0 in /  0.0 mm
15:17 75.9 °F /  24.4 °C 61 °F /  16.1 °C 29.9 in /  1012.1 hPa SSE 2 mph /  3.2 km/h 7 mph /  11.3 km/h 60 % 0 in /  0.0 mm
15:22 75.7 °F /  24.3 °C 61.3 °F /  16.3 °C 29.9 in /  1012.1 hPa SSE 1 mph /  1.6 km/h 7 mph /  11.3 km/h 61 % 0 in /  0.0 mm
15:27 75.7 °F /  24.3 °C 61.3 °F /  16.3 °C 29.9 in /  1012.4 hPa Calm   7 mph /  11.3 km/h 61 % 0 in /  0.0 mm
15:32 75.7 °F /  24.3 °C 61.3 °F /  16.3 °C 29.9 in /  1012.4 hPa SE 4 mph /  6.4 km/h 7 mph /  11.3 km/h 61 % 0 in /  0.0 mm
15:37 75.7 °F /  24.3 °C 61.9 °F /  16.6 °C 29.9 in /  1012.4 hPa SSW 3 mph /  4.8 km/h 7 mph /  11.3 km/h 62 % 0 in /  0.0 mm
15:42 75.7 °F /  24.3 °C 61.9 °F /  16.6 °C 29.9 in /  1012.4 hPa SSE 3 mph /  4.8 km/h 7 mph /  11.3 km/h 62 % 0 in /  0.0 mm
15:47 75.7 °F /  24.3 °C 62.2 °F /  16.8 °C 29.9 in /  1012.4 hPa SSE 1 mph /  1.6 km/h 6 mph /  9.7 km/h 63 % 0 in /  0.0 mm
15:52 75.6 °F /  24.2 °C 62.6 °F /  17.0 °C 29.9 in /  1012.4 hPa SSW 3 mph /  4.8 km/h 6 mph /  9.7 km/h 64 % 0 in /  0.0 mm
15:57 75.4 °F /  24.1 °C 62.8 °F /  17.1 °C 29.9 in /  1012.4 hPa WSW 2 mph /  3.2 km/h 5 mph /  8.0 km/h 65 % 0 in /  0.0 mm
16:02 75.2 °F /  24.0 °C 62.2 °F /  16.8 °C 29.9 in /  1012.4 hPa ESE 2 mph /  3.2 km/h 5 mph /  8.0 km/h 64 % 0 in /  0.0 mm
16:12 74.7 °F /  23.7 °C 63.9 °F /  17.7 °C 29.9 in /  1012.4 hPa Calm   5 mph /  8.0 km/h 69 % 0 in /  0.0 mm
16:17 74.1 °F /  23.4 °C 64 °F /  17.8 °C 29.9 in /  1012.4 hPa Calm   5 mph /  8.0 km/h 71 % 0 in /  0.0 mm
16:22 73.8 °F /  23.2 °C 64.2 °F /  17.9 °C 29.9 in /  1012.4 hPa Calm   5 mph /  8.0 km/h 72 % 0 in /  0.0 mm
16:27 73.4 °F /  23.0 °C 64.2 °F /  17.9 °C 29.9 in /  1012.4 hPa Calm   4 mph /  6.4 km/h 73 % 0 in /  0.0 mm
16:32 73.2 °F /  22.9 °C 64 °F /  17.8 °C 29.9 in /  1012.4 hPa Calm   4 mph /  6.4 km/h 73 % 0 in /  0.0 mm
16:37 73 °F /  22.8 °C 64.6 °F /  18.1 °C 29.9 in /  1012.4 hPa Calm   2 mph /  3.2 km/h 75 % 0 in /  0.0 mm
16:42 73 °F /  22.8 °C 64.9 °F /  18.3 °C 29.9 in /  1012.4 hPa SW 1 mph /  1.6 km/h 2 mph /  3.2 km/h 76 % 0 in /  0.0 mm
16:47 73 °F /  22.8 °C 64.6 °F /  18.1 °C 29.9 in /  1012.4 hPa SSW 2 mph /  3.2 km/h 3 mph /  4.8 km/h 75 % 0 in /  0.0 mm
16:52 73 °F /  22.8 °C 64.9 °F /  18.3 °C 29.9 in /  1012.4 hPa SSE 2 mph /  3.2 km/h 3 mph /  4.8 km/h 76 % 0 in /  0.0 mm
17:02 73 °F /  22.8 °C 64.6 °F /  18.1 °C 29.9 in /  1012.4 hPa SSW 4 mph /  6.4 km/h 4 mph /  6.4 km/h 75 % 0 in /  0.0 mm
17:07 72.9 °F /  22.7 °C 64.4 °F /  18.0 °C 29.9 in /  1012.4 hPa SW 5 mph /  8.0 km/h 6 mph /  9.7 km/h 75 % 0 in /  0.0 mm
17:12 72.7 °F /  22.6 °C 64.2 °F /  17.9 °C 29.9 in /  1012.4 hPa SSW 1 mph /  1.6 km/h 6 mph /  9.7 km/h 75 % 0 in /  0.0 mm
17:22 72.7 °F /  22.6 °C 64.8 °F /  18.2 °C 29.9 in /  1012.4 hPa SSW 2 mph /  3.2 km/h 7 mph /  11.3 km/h 76 % 0 in /  0.0 mm
17:32 72.1 °F /  22.3 °C 64.9 °F /  18.3 °C 29.9 in /  1012.4 hPa Calm   5 mph /  8.0 km/h 78 % 0 in /  0.0 mm
17:37 72.1 °F /  22.3 °C 64.9 °F /  18.3 °C 29.9 in /  1012.4 hPa SW 2 mph /  3.2 km/h 4 mph /  6.4 km/h 78 % 0 in /  0.0 mm
17:42 72 °F /  22.2 °C 64 °F /  17.8 °C 29.9 in /  1012.1 hPa SSW 3 mph /  4.8 km/h 4 mph /  6.4 km/h 76 % 0 in /  0.0 mm
17:52 71.8 °F /  22.1 °C 64.2 °F /  17.9 °C 29.9 in /  1012.1 hPa Calm   4 mph /  6.4 km/h 77 % 0 in /  0.0 mm
18:02 71.4 °F /  21.9 °C 64.2 °F /  17.9 °C 29.9 in /  1011.7 hPa Calm   4 mph /  6.4 km/h 78 % 0.01 in /  0.3 mm
18:12 71.2 °F /  21.8 °C 65.1 °F /  18.4 °C 29.9 in /  1011.7 hPa Calm   4 mph /  6.4 km/h 81 % 0.01 in /  0.3 mm
18:17 71.1 °F /  21.7 °C 65.3 °F /  18.5 °C 29.9 in /  1011.7 hPa Calm   3 mph /  4.8 km/h 82 % 0.01 in /  0.3 mm
18:22 70.9 °F /  21.6 °C 65.5 °F /  18.6 °C 29.9 in /  1011.7 hPa Calm   1 mph /  1.6 km/h 83 % 0.01 in /  0.3 mm
18:32 70.3 °F /  21.3 °C 65.3 °F /  18.5 °C 29.9 in /  1011.4 hPa Calm   1 mph /  1.6 km/h 84 % 0.02 in /  0.5 mm
18:42 69.4 °F /  20.8 °C 64.4 °F /  18.0 °C 29.9 in /  1011.4 hPa Calm   2 mph /  3.2 km/h 84 % 0.02 in /  0.5 mm
18:52 69.3 °F /  20.7 °C 64.9 °F /  18.3 °C 29.9 in /  1011.1 hPa Calm   2 mph /  3.2 km/h 86 % 0.02 in /  0.5 mm
18:57 69.1 °F /  20.6 °C 65.1 °F /  18.4 °C 29.9 in /  1011.1 hPa Calm   1 mph /  1.6 km/h 87 % 0.02 in /  0.5 mm
19:02 68.7 °F /  20.4 °C 64.4 °F /  18.0 °C 29.9 in /  1011.1 hPa Calm   1 mph /  1.6 km/h 86 % 0.02 in /  0.5 mm
19:12 68.4 °F /  20.2 °C 63.7 °F /  17.6 °C 29.9 in /  1011.1 hPa Calm   1 mph /  1.6 km/h 85 % 0.02 in /  0.5 mm
19:17 68.2 °F /  20.1 °C 63.5 °F /  17.5 °C 29.9 in /  1011.1 hPa Calm   1 mph /  1.6 km/h 85 % 0.02 in /  0.5 mm
19:22 68.2 °F /  20.1 °C 63.5 °F /  17.5 °C 29.9 in /  1011.1 hPa Calm   1 mph /  1.6 km/h 85 % 0.02 in /  0.5 mm
19:27 67.8 °F /  19.9 °C 62.8 °F /  17.1 °C 29.9 in /  1011.1 hPa Calm   1 mph /  1.6 km/h 84 % 0.02 in /  0.5 mm
19:32 68.2 °F /  20.1 °C 64.2 °F /  17.9 °C 29.9 in /  1011.1 hPa Calm   1 mph /  1.6 km/h 87 % 0.02 in /  0.5 mm
19:37 68.4 °F /  20.2 °C 64.6 °F /  18.1 °C 29.8 in /  1010.7 hPa Calm     88 % 0.02 in /  0.5 mm
19:42 68 °F /  20.0 °C 64.4 °F /  18.0 °C 29.8 in /  1010.7 hPa Calm     88 % 0.02 in /  0.5 mm
19:47 68 °F /  20.0 °C 64.6 °F /  18.1 °C 29.8 in /  1010.7 hPa Calm     89 % 0.01 in /  0.3 mm
19:52 68.2 °F /  20.1 °C 64.8 °F /  18.2 °C 29.8 in /  1010.7 hPa Calm     89 % 0.01 in /  0.3 mm
19:57 68.2 °F /  20.1 °C 64.8 °F /  18.2 °C 29.8 in /  1010.4 hPa Calm     89 % 0.01 in /  0.3 mm
20:02 68.2 °F /  20.1 °C 64.8 °F /  18.2 °C 29.8 in /  1010.4 hPa Calm     89 % 0.01 in /  0.3 mm
20:12 67.6 °F /  19.8 °C 64 °F /  17.8 °C 29.8 in /  1010.4 hPa Calm     88 % 0 in /  0.0 mm
20:17 68 °F /  20.0 °C 64.6 °F /  18.1 °C 29.8 in /  1010.4 hPa Calm     89 % 0 in /  0.0 mm
20:27 67.8 °F /  19.9 °C 64.4 °F /  18.0 °C 29.8 in /  1010.7 hPa Calm     89 % 0 in /  0.0 mm
20:32 67.8 °F /  19.9 °C 64.8 °F /  18.2 °C 29.8 in /  1010.4 hPa Calm     90 % 0 in /  0.0 mm
20:37 67.8 °F /  19.9 °C 64.8 °F /  18.2 °C 29.8 in /  1010.4 hPa Calm     90 % 0 in /  0.0 mm
20:42 67.8 °F /  19.9 °C 64.8 °F /  18.2 °C 29.8 in /  1010.7 hPa Calm     90 % 0 in /  0.0 mm
20:47 67.6 °F /  19.8 °C 64.6 °F /  18.1 °C 29.8 in /  1010.7 hPa Calm     90 % 0 in /  0.0 mm
20:52 67.6 °F /  19.8 °C 64.9 °F /  18.3 °C 29.8 in /  1010.7 hPa Calm     91 % 0 in /  0.0 mm
20:57 67.5 °F /  19.7 °C 64.8 °F /  18.2 °C 29.8 in /  1010.7 hPa Calm     91 % 0 in /  0.0 mm
21:02 67.5 °F /  19.7 °C 64.8 °F /  18.2 °C 29.8 in /  1010.7 hPa Calm     91 % 0 in /  0.0 mm
21:12 67.5 °F /  19.7 °C 64.8 °F /  18.2 °C 29.8 in /  1010.7 hPa Calm     91 % 0 in /  0.0 mm
21:17 67.3 °F /  19.6 °C 64.6 °F /  18.1 °C 29.8 in /  1010.7 hPa Calm     91 % 0 in /  0.0 mm
21:22 67.3 °F /  19.6 °C 64.9 °F /  18.3 °C 29.9 in /  1011.1 hPa Calm     92 % 0 in /  0.0 mm
21:32 66.9 °F /  19.4 °C 64.6 °F /  18.1 °C 29.9 in /  1011.1 hPa Calm     92 % 0 in /  0.0 mm
21:37 66.9 °F /  19.4 °C 64.6 °F /  18.1 °C 29.9 in /  1011.1 hPa Calm     92 % 0 in /  0.0 mm
21:42 66.7 °F /  19.3 °C 64.4 °F /  18.0 °C 29.9 in /  1011.1 hPa Calm     92 % 0 in /  0.0 mm
21:47 66.4 °F /  19.1 °C 64 °F /  17.8 °C 29.9 in /  1011.1 hPa Calm     92 % 0 in /  0.0 mm
21:52 66.4 °F /  19.1 °C 64.2 °F /  17.9 °C 29.9 in /  1011.1 hPa Calm     93 % 0 in /  0.0 mm
22:02 66.2 °F /  19.0 °C 64 °F /  17.8 °C 29.9 in /  1011.1 hPa Calm     93 % 0.01 in /  0.3 mm
22:12 66 °F /  18.9 °C 64.2 °F /  17.9 °C 29.9 in /  1011.1 hPa Calm     94 % 0.01 in /  0.3 mm
22:17 66 °F /  18.9 °C 64.2 °F /  17.9 °C 29.9 in /  1011.1 hPa Calm   2 mph /  3.2 km/h 94 % 0.01 in /  0.3 mm
22:22 66.2 °F /  19.0 °C 64.4 °F /  18.0 °C 29.9 in /  1011.1 hPa Calm   2 mph /  3.2 km/h 94 % 0.01 in /  0.3 mm
22:32 66 °F /  18.9 °C 64.2 °F /  17.9 °C 29.9 in /  1011.1 hPa Calm   2 mph /  3.2 km/h 94 % 0.01 in /  0.3 mm
22:42 65.7 °F /  18.7 °C 63.9 °F /  17.7 °C 29.9 in /  1011.1 hPa Calm     94 % 0.01 in /  0.3 mm
22:47 65.7 °F /  18.7 °C 63.9 °F /  17.7 °C 29.9 in /  1011.1 hPa Calm     94 % 0.01 in /  0.3 mm
22:52 65.7 °F /  18.7 °C 63.9 °F /  17.7 °C 29.9 in /  1011.1 hPa Calm     94 % 0.01 in /  0.3 mm
22:57 65.5 °F /  18.6 °C 63.7 °F /  17.6 °C 29.9 in /  1011.1 hPa Calm     94 % 0 in /  0.0 mm
23:02 65.3 °F /  18.5 °C 63.5 °F /  17.5 °C 29.9 in /  1011.1 hPa North 1 mph /  1.6 km/h   94 % 0 in /  0.0 mm
23:12 65.3 °F /  18.5 °C 63.5 °F /  17.5 °C 29.9 in /  1011.1 hPa Calm   1 mph /  1.6 km/h 94 % 0 in /  0.0 mm
23:17 65.3 °F /  18.5 °C 63.5 °F /  17.5 °C 29.9 in /  1011.1 hPa Calm   1 mph /  1.6 km/h 94 % 0 in /  0.0 mm
23:22 65.1 °F /  18.4 °C 63.3 °F /  17.4 °C 29.9 in /  1011.1 hPa Calm   1 mph /  1.6 km/h 94 % 0 in /  0.0 mm
23:32 64.9 °F /  18.3 °C 63.1 °F /  17.3 °C 29.9 in /  1011.1 hPa Calm     94 % 0 in /  0.0 mm
23:42 64.8 °F /  18.2 °C 63 °F /  17.2 °C 29.9 in /  1011.1 hPa Calm     94 % 0 in /  0.0 mm
23:52 64.6 °F /  18.1 °C 62.8 °F /  17.1 °C 29.9 in /  1011.1 hPa Calm     94 % 0 in /  0.0 mm
23:57 64.2 °F /  17.9 °C 62.4 °F /  16.9 °C 29.9 in /  1011.4 hPa Calm     94 % 0 in /  0.0 mm
Meteo18
Compliments of Weather Underground - 4 mb

Script developed by  Jim McMurry - jmcmurry@mwt.net Adapted for the template by  Wim van der Kuil - Leuven-Template.eu

You find our weather info also at:

European Weather Network

Weather Underground

Equipment we use:

Weather-station
Davis Vue

Weather-program
Meteohub

Weather-server
Raspberry PI 2 B+

Provider
1 and 1

Davis Vue

Meteohub

Raspberry PI 2 B+

1 and 1